Time;durP1;ratioP1;P1;durP2;ratioP2;P2;SDS_P1;SDS_P2;PMS_P1;PMS_P2;Temp;Humidity;BMP_temperature;BMP_pressure;BME280_temperature;BME280_humidity;BME280_pressure;Samples;Min_cycle;Max_cycle;Signal;HPM_P1;HPM_P2
2021/01/31 00:01:49;;;;;;;17.83;8.67;;;;;;;-7.10;100.00;99994.75;4998623;28;20642;-68
2021/01/31 00:04:15;;;;;;;20.13;8.77;;;;;;;-6.95;100.00;100000.06;5031775;28;20263;-69
2021/01/31 00:06:41;;;;;;;20.13;9.63;;;;;;;-6.99;100.00;99991.69;5015007;28;20212;-68
2021/01/31 00:09:07;;;;;;;21.23;10.03;;;;;;;-7.10;100.00;99991.31;5015468;28;20196;-68
2021/01/31 00:11:32;;;;;;;27.97;9.53;;;;;;;-6.88;100.00;99993.91;4998607;28;20228;-68
2021/01/31 00:13:58;;;;;;;26.40;9.57;;;;;;;-6.66;100.00;99993.03;4999417;28;20189;-68
2021/01/31 00:16:23;;;;;;;42.67;9.80;;;;;;;-6.65;100.00;99994.66;4997181;28;20629;-68
2021/01/31 00:18:49;;;;;;;19.13;9.90;;;;;;;-6.57;100.00;99987.50;4999386;28;20192;-68
2021/01/31 00:21:15;;;;;;;35.40;10.27;;;;;;;-6.85;100.00;99998.81;5031015;28;20239;-68
2021/01/31 00:23:43;;;;;;;39.43;10.57;;;;;;;-6.64;100.00;99998.94;5000068;28;20191;-68
2021/01/31 00:26:08;;;;;;;31.77;11.53;;;;;;;-6.80;100.00;99999.91;5014008;28;20388;-68
2021/01/31 00:28:34;;;;;;;36.20;9.77;;;;;;;-6.75;100.00;100004.66;5015933;28;20184;-67
2021/01/31 00:31:00;;;;;;;36.97;10.03;;;;;;;-6.80;100.00;100007.00;5015755;28;20232;-67
2021/01/31 00:33:30;;;;;;;39.83;9.23;;;;;;;-6.91;100.00;99999.53;5016892;28;20556;-67
2021/01/31 00:35:56;;;;;;;55.53;9.93;;;;;;;-6.87;100.00;100003.44;5027108;28;20220;-67
2021/01/31 00:38:23;;;;;;;26.90;9.97;;;;;;;-6.97;100.00;100005.50;4995844;28;20243;-68
2021/01/31 00:40:48;;;;;;;50.00;10.07;;;;;;;-7.25;100.00;100012.34;5001285;28;20230;-67
2021/01/31 00:43:17;;;;;;;42.50;9.97;;;;;;;-7.29;100.00;100009.41;5015290;28;20275;-67
2021/01/31 00:45:43;;;;;;;77.40;11.27;;;;;;;-7.48;100.00;100015.13;4998116;28;20294;-67
2021/01/31 00:48:08;;;;;;;31.57;9.47;;;;;;;-7.36;100.00;100019.84;4998924;28;20184;-67
2021/01/31 00:50:37;;;;;;;42.17;11.83;;;;;;;-7.39;100.00;100011.47;5030921;28;20220;-67
2021/01/31 00:53:10;;;;;;;61.40;10.50;;;;;;;-7.65;100.00;100008.34;5001206;28;20200;-67
2021/01/31 00:55:39;;;;;;;64.67;10.80;;;;;;;-7.84;100.00;100008.75;4998076;28;20262;-69
2021/01/31 00:58:07;;;;;;;43.57;8.30;;;;;;;-7.81;100.00;100005.78;4998676;28;20185;-70
2021/01/31 01:00:38;;;;;;;35.10;9.30;;;;;;;-7.54;100.00;100019.28;5013888;28;20274;-68
2021/01/31 01:03:10;;;;;;;25.10;8.53;;;;;;;-7.45;100.00;100015.63;5016092;28;20180;-67
2021/01/31 01:05:53;;;;;;;21.30;8.47;;;;;;;-7.31;100.00;100016.66;5001791;28;20219;-67
2021/01/31 01:08:19;;;;;;;36.40;10.63;;;;;;;-7.22;100.00;100011.97;5014418;28;20600;-67
2021/01/31 01:10:47;;;;;;;22.40;8.13;;;;;;;-7.34;100.00;100011.72;4997463;28;20686;-67
2021/01/31 01:13:12;;;;;;;30.10;8.57;;;;;;;-7.31;100.00;100016.66;4998173;28;20188;-67
2021/01/31 01:15:38;;;;;;;26.80;8.17;;;;;;;-7.24;100.00;100007.88;4996750;28;20223;-67
2021/01/31 01:18:03;;;;;;;20.23;8.00;;;;;;;-7.08;100.00;100008.56;4998253;28;20181;-67
2021/01/31 01:20:31;;;;;;;13.57;7.93;;;;;;;-7.01;100.00;100009.50;5013657;28;20690;-67
2021/01/31 01:23:01;;;;;;;37.97;8.57;;;;;;;-7.16;100.00;100010.44;4998486;28;20180;-67
2021/01/31 01:25:27;;;;;;;32.63;7.60;;;;;;;-7.15;100.00;100012.91;5013455;28;20224;-67
2021/01/31 01:27:53;;;;;;;25.37;8.23;;;;;;;-7.41;100.00;100016.09;5030589;28;20175;-68
2021/01/31 01:30:24;;;;;;;21.83;8.00;;;;;;;-7.23;100.00;100004.25;4996913;28;20204;-67
2021/01/31 01:32:54;;;;;;;24.27;8.30;;;;;;;-7.23;100.00;100018.25;5014817;28;20234;-67
2021/01/31 01:35:21;;;;;;;23.83;7.70;;;;;;;-7.51;100.00;100010.19;5029714;28;20257;-68
2021/01/31 01:37:46;;;;;;;33.50;9.67;;;;;;;-7.52;100.00;100003.31;5014115;28;20268;-68
2021/01/31 01:40:21;;;;;;;22.90;8.63;;;;;;;-7.61;100.00;100004.34;5013068;28;20595;-68
2021/01/31 01:42:48;;;;;;;47.67;8.87;;;;;;;-7.89;100.00;100005.81;5030583;28;20230;-68
2021/01/31 01:45:17;;;;;;;16.27;7.57;;;;;;;-7.84;100.00;100002.66;4998604;28;20191;-68
2021/01/31 01:47:42;;;;;;;32.87;8.83;;;;;;;-8.04;100.00;100000.63;4998394;28;20184;-68
2021/01/31 01:50:17;;;;;;;36.93;7.07;;;;;;;-8.07;100.00;100007.06;5013680;28;20197;-67
2021/01/31 01:52:43;;;;;;;28.87;7.90;;;;;;;-7.84;100.00;100008.75;5030661;28;20184;-68
2021/01/31 01:55:12;;;;;;;67.17;8.20;;;;;;;-7.74;100.00;100004.09;5028445;28;20172;-68
2021/01/31 01:58:00;;;;;;;32.50;8.00;;;;;;;-7.98;100.00;100006.03;4997822;28;20215;-68
2021/01/31 02:00:26;;;;;;;19.40;7.47;;;;;;;-7.81;100.00;99997.06;5012695;28;20240;-68
2021/01/31 02:02:57;;;;;;;29.57;7.73;;;;;;;-7.98;100.00;100001.59;5028957;28;20184;-68
2021/01/31 02:05:22;;;;;;;18.00;7.00;;;;;;;-7.75;100.00;99991.09;5012423;28;20585;-68
2021/01/31 02:07:50;;;;;;;15.60;6.87;;;;;;;-7.97;100.00;100003.22;4997240;28;20187;-68
2021/01/31 02:10:20;;;;;;;22.77;7.37;;;;;;;-7.90;100.00;100004.16;5013125;28;20409;-68
2021/01/31 02:12:46;;;;;;;30.30;8.57;;;;;;;-8.01;100.00;99998.47;5013688;28;20188;-68
2021/01/31 02:15:15;;;;;;;27.13;7.73;;;;;;;-8.39;100.00;100011.63;5012175;28;20696;-67
2021/01/31 02:17:52;;;;;;;23.17;7.40;;;;;;;-8.22;100.00;100002.69;5014268;28;20551;-67
2021/01/31 02:20:45;;;;;;;20.10;7.97;;;;;;;-8.13;100.00;100001.69;5029110;28;20211;-67
2021/01/31 02:23:17;;;;;;;27.33;8.20;;;;;;;-8.02;100.00;100005.56;5030103;28;20192;-68
2021/01/31 02:26:02;;;;;;;26.73;7.77;;;;;;;-8.36;100.00;100011.31;5012208;28;20694;-67
2021/01/31 02:28:56;;;;;;;50.63;8.17;;;;;;;-8.57;100.00;100012.84;5029825;28;20634;-68
2021/01/31 02:31:43;;;;;;;22.60;7.30;;;;;;;-8.66;100.00;100004.16;5026088;28;20238;-67
2021/01/31 02:34:17;;;;;;;15.70;7.23;;;;;;;-8.14;100.00;100007.94;5030960;28;20231;-67
2021/01/31 02:36:43;;;;;;;16.50;7.43;;;;;;;-8.24;100.00;100004.69;5030284;28;20223;-68
2021/01/31 02:39:30;;;;;;;13.60;6.83;;;;;;;-8.08;100.00;100005.41;5032501;28;20210;-67
2021/01/31 02:42:30;;;;;;;15.53;7.10;;;;;;;-8.05;100.00;99999.00;5034994;28;20238;-68
2021/01/31 02:45:12;;;;;;;11.40;6.57;;;;;;;-8.11;100.00;100000.53;5022683;28;20204;-68
2021/01/31 02:47:41;;;;;;;14.37;6.87;;;;;;;-8.22;100.00;100002.69;5017555;28;20227;-68
2021/01/31 02:50:27;;;;;;;10.90;6.23;;;;;;;-8.27;100.00;100005.03;4983779;28;20210;-68
2021/01/31 02:53:04;;;;;;;14.80;6.13;;;;;;;-8.52;100.00;100006.09;5001141;28;20295;-67
2021/01/31 02:55:49;;;;;;;14.57;7.40;;;;;;;-8.47;100.00;100005.59;4999743;28;20437;-68
2021/01/31 02:58:19;;;;;;;11.73;6.17;;;;;;;-8.42;100.00;100009.38;5017408;28;20184;-68
2021/01/31 03:00:51;;;;;;;13.50;6.10;;;;;;;-8.37;100.00;99999.13;5000790;28;20260;-68
2021/01/31 03:03:23;;;;;;;16.97;6.67;;;;;;;-8.36;100.00;100001.59;5001419;28;20187;-68
2021/01/31 03:05:50;;;;;;;14.13;7.10;;;;;;;-8.72;100.00;99998.72;5010404;28;20237;-67
2021/01/31 03:08:36;;;;;;;13.47;5.97;;;;;;;-8.85;100.00;99994.97;4996763;28;20190;-68
2021/01/31 03:11:13;;;;;;;12.17;6.37;;;;;;;-9.09;100.00;99995.00;5004645;28;20230;-68
2021/01/31 03:13:48;;;;;;;10.47;6.17;;;;;;;-9.01;100.00;99992.38;5016795;28;20184;-67
2021/01/31 03:16:23;;;;;;;11.57;6.60;;;;;;;-8.96;100.00;99990.06;4991600;28;20236;-68
2021/01/31 03:18:57;;;;;;;13.50;6.10;;;;;;;-9.01;100.00;99992.38;4997415;28;20707;-68
2021/01/31 03:21:25;;;;;;;12.90;5.87;;;;;;;-8.62;100.00;99994.94;5012981;28;20233;-67
2021/01/31 03:24:12;;;;;;;13.37;6.90;;;;;;;-8.53;100.00;99986.03;5013232;28;20228;-68
2021/01/31 03:26:39;;;;;;;12.40;6.07;;;;;;;-8.52;100.00;99982.41;5024682;28;20278;-68
2021/01/31 03:29:04;;;;;;;11.00;6.17;;;;;;;-8.53;100.00;99990.47;5016263;28;20227;-68
2021/01/31 03:31:31;;;;;;;14.13;7.60;;;;;;;-8.60;100.00;99990.34;4999438;28;20231;-68
2021/01/31 03:34:06;;;;;;;13.53;6.67;;;;;;;-8.70;100.00;99980.97;5000215;28;20591;-68
2021/01/31 03:36:32;;;;;;;18.80;6.90;;;;;;;-8.71;100.00;99990.69;4987983;28;20278;-68
2021/01/31 03:38:58;;;;;;;18.40;7.07;;;;;;;-8.71;100.00;99989.88;4980461;28;20192;-67
2021/01/31 03:41:31;;;;;;;33.77;7.63;;;;;;;-8.91;100.00;99991.22;5006818;28;20235;-68
2021/01/31 03:43:57;;;;;;;23.90;7.20;;;;;;;-9.25;100.00;100002.06;4984389;28;20187;-68
2021/01/31 03:47:18;;;;;;;15.70;6.77;;;;;;;-9.29;100.00;100004.19;4998764;28;20575;-68
2021/01/31 03:49:49;;;;;;;14.83;6.00;;;;;;;-8.97;100.00;99998.94;5014723;28;20276;-67
2021/01/31 03:52:15;;;;;;;14.23;6.63;;;;;;;-9.06;100.00;100005.19;4998148;28;20592;-68
2021/01/31 03:54:42;;;;;;;33.80;7.87;;;;;;;-9.09;100.00;99992.38;5015584;28;20181;-68
2021/01/31 03:57:13;;;;;;;22.20;7.47;;;;;;;-8.91;100.00;100008.81;5015665;28;20744;-67
2021/01/31 04:00:01;;;;;;;17.03;7.60;;;;;;;-8.90;100.00;99999.91;4999631;28;20227;-68
2021/01/31 04:02:52;;;;;;;24.43;8.13;;;;;;;-9.28;100.00;100000.59;5017365;28;20571;-67
2021/01/31 04:05:18;;;;;;;22.27;7.70;;;;;;;-9.36;100.00;100002.38;5016040;28;20331;-68
2021/01/31 04:07:47;;;;;;;15.43;7.40;;;;;;;-9.19;100.00;99999.63;5016163;28;20186;-68
2021/01/31 04:10:13;;;;;;;15.40;6.70;;;;;;;-9.16;100.00;99994.00;5014999;28;20196;-68
2021/01/31 04:12:41;;;;;;;17.83;6.70;;;;;;;-9.29;100.00;99993.69;4998440;28;20284;-68
2021/01/31 04:15:18;;;;;;;16.10;6.70;;;;;;;-9.11;100.00;99996.97;4990159;28;20562;-69
2021/01/31 04:17:46;;;;;;;15.97;7.50;;;;;;;-9.06;100.00;100005.19;5015909;28;20280;-68
2021/01/31 04:20:14;;;;;;;11.70;6.07;;;;;;;-9.11;100.00;100004.88;4998771;28;20342;-68
2021/01/31 04:22:39;;;;;;;11.13;5.93;;;;;;;-9.21;100.00;100012.09;5015063;28;20186;-67
2021/01/31 04:25:06;;;;;;;18.47;7.23;;;;;;;-9.34;100.00;100008.28;5015010;28;20199;-68
2021/01/31 04:27:34;;;;;;;18.13;6.47;;;;;;;-9.26;100.00;100014.38;4999158;28;20237;-68
2021/01/31 04:30:00;;;;;;;17.37;6.60;;;;;;;-9.25;100.00;100016.00;4998986;28;20199;-68
2021/01/31 04:32:25;;;;;;;20.57;7.53;;;;;;;-9.30;100.00;100002.56;5014552;28;20228;-68
2021/01/31 04:34:51;;;;;;;17.70;6.77;;;;;;;-9.51;100.00;100010.09;5014910;28;20202;-68
2021/01/31 04:37:24;;;;;;;15.53;7.13;;;;;;;-9.71;100.00;100007.91;4996771;28;20228;-67
2021/01/31 04:39:50;;;;;;;13.23;6.53;;;;;;;-9.79;100.00;100009.72;4994905;28;20327;-67
2021/01/31 04:42:18;;;;;;;12.43;6.20;;;;;;;-9.89;100.00;100009.88;5010318;28;20816;-68
2021/01/31 04:44:44;;;;;;;13.20;6.07;;;;;;;-9.77;100.00;100002.50;4994461;28;20189;-68
2021/01/31 04:47:16;;;;;;;15.33;6.87;;;;;;;-9.40;100.00;100007.13;4997705;28;20221;-67
2021/01/31 04:49:41;;;;;;;11.93;5.83;;;;;;;-9.37;100.00;100008.66;5011777;28;20605;-67
2021/01/31 04:52:21;;;;;;;13.40;6.27;;;;;;;-9.48;100.00;100001.88;5028151;28;20251;-67
2021/01/31 04:54:50;;;;;;;12.10;5.47;;;;;;;-9.37;100.00;100008.66;5014684;28;20193;-67
2021/01/31 04:57:43;;;;;;;14.33;7.10;;;;;;;-9.53;100.00;100017.31;5014416;28;20247;-68
2021/01/31 05:00:14;;;;;;;12.27;5.87;;;;;;;-9.91;100.00;100011.00;4960853;28;20254;-68
2021/01/31 05:02:43;;;;;;;14.27;6.93;;;;;;;-9.98;100.00;100010.03;4998842;28;20216;-67
2021/01/31 05:05:18;;;;;;;14.63;7.00;;;;;;;-10.11;100.00;100003.56;5013662;28;20537;-68
2021/01/31 05:08:00;;;;;;;15.13;7.10;;;;;;;-10.28;100.00;100021.03;5014859;28;20247;-68
2021/01/31 05:10:27;;;;;;;14.57;7.40;;;;;;;-10.16;100.00;100022.44;4997636;28;20223;-68
2021/01/31 05:13:01;;;;;;;12.97;7.00;;;;;;;-9.98;100.00;100020.53;4998356;28;20556;-68
2021/01/31 05:15:28;;;;;;;15.17;7.03;;;;;;;-10.04;100.00;100018.53;5013477;28;20228;-68
2021/01/31 05:17:55;;;;;;;14.60;6.47;;;;;;;-10.21;100.00;100010.75;4997918;28;20648;-67
2021/01/31 05:20:22;;;;;;;12.03;6.27;;;;;;;-10.00;100.00;100022.47;4997036;28;20224;-68
2021/01/31 05:22:51;;;;;;;14.20;7.00;;;;;;;-9.95;100.00;100014.13;5030890;28;20198;-68
2021/01/31 05:25:21;;;;;;;13.80;6.47;;;;;;;-9.92;100.00;100025.13;5013690;28;20169;-68
2021/01/31 05:27:49;;;;;;;12.00;6.30;;;;;;;-9.62;100.00;100022.72;5030590;28;20189;-68
2021/01/31 05:30:15;;;;;;;13.93;6.73;;;;;;;-9.60;100.00;100025.19;5013843;28;20291;-68
2021/01/31 05:33:14;;;;;;;13.40;6.73;;;;;;;-9.95;100.00;100030.69;5014272;28;20203;-67
2021/01/31 05:36:08;;;;;;;11.63;6.30;;;;;;;-10.17;100.00;100018.16;5012855;28;20227;-68
2021/01/31 05:38:39;;;;;;;13.23;6.90;;;;;;;-10.20;100.00;100026.34;5021504;28;20191;-68
2021/01/31 05:41:31;;;;;;;13.67;6.77;;;;;;;-10.11;100.00;100017.53;4996915;28;20237;-67
2021/01/31 05:44:09;;;;;;;14.83;6.73;;;;;;;-9.88;100.00;100021.19;5030435;28;20239;-67
2021/01/31 05:46:44;;;;;;;9.50;6.47;;;;;;;-9.99;100.00;100024.13;5005048;28;20231;-68
2021/01/31 05:49:12;;;;;;;12.67;6.20;;;;;;;-9.59;100.00;100026.84;5010830;28;20187;-67
2021/01/31 05:51:40;;;;;;;14.30;6.90;;;;;;;-9.48;100.00;100030.78;4989723;28;20224;-68
2021/01/31 05:54:34;;;;;;;16.63;7.17;;;;;;;-9.48;100.00;100030.78;4996306;28;20556;-68
2021/01/31 05:57:01;;;;;;;13.80;6.40;;;;;;;-9.41;100.00;100023.91;5007188;28;20230;-68
2021/01/31 05:59:39;;;;;;;16.57;7.53;;;;;;;-9.80;100.00;100023.81;5001354;28;20208;-67
2021/01/31 06:02:05;;;;;;;17.33;8.37;;;;;;;-9.94;100.00;100024.47;4998284;28;20775;-68
2021/01/31 06:04:30;;;;;;;18.67;7.70;;;;;;;-10.24;100.00;100027.63;4994781;28;20190;-67
2021/01/31 06:07:08;;;;;;;15.80;7.80;;;;;;;-10.30;100.00;100019.56;5009340;28;20693;-67
2021/01/31 06:09:49;;;;;;;19.57;8.13;;;;;;;-10.19;100.00;100024.53;4998517;28;20195;-68
2021/01/31 06:12:21;;;;;;;15.47;7.10;;;;;;;-10.27;100.00;100025.31;5014177;28;20611;-67
2021/01/31 06:15:06;;;;;;;16.70;7.77;;;;;;;-10.28;100.00;100028.91;5014206;28;20216;-67
2021/01/31 06:17:32;;;;;;;16.43;8.03;;;;;;;-10.28;100.00;100029.91;5030596;28;20697;-68
2021/01/31 06:20:01;;;;;;;13.63;6.53;;;;;;;-10.32;100.00;100032.03;4981373;28;20214;-68
2021/01/31 06:22:41;;;;;;;15.73;6.97;;;;;;;-10.42;100.00;100025.25;5014043;28;20220;-67
2021/01/31 06:25:09;;;;;;;15.10;7.23;;;;;;;-10.17;100.00;100036.50;5029079;28;20265;-68
2021/01/31 06:27:36;;;;;;;14.97;6.67;;;;;;;-10.44;100.00;100038.50;5013677;28;20192;-67
2021/01/31 06:30:15;;;;;;;13.27;6.57;;;;;;;-10.22;100.00;100033.56;5029607;28;20205;-67
2021/01/31 06:32:42;;;;;;;16.63;6.47;;;;;;;-10.01;100.00;100031.34;5014974;28;20238;-68
2021/01/31 06:35:12;;;;;;;13.10;6.73;;;;;;;-10.12;100.00;100023.75;5011529;28;20192;-68
2021/01/31 06:38:07;;;;;;;13.30;6.47;;;;;;;-10.37;98.96;100021.16;5013555;28;20187;-68
2021/01/31 06:40:51;;;;;;;11.23;5.80;;;;;;;-10.20;100.00;100030.75;5029105;28;20309;-68
2021/01/31 06:43:45;;;;;;;14.53;6.40;;;;;;;-9.77;100.00;100040.06;5029946;28;20180;-68
2021/01/31 06:46:29;;;;;;;12.13;5.87;;;;;;;-9.63;99.45;100036.84;5012644;28;20738;-67
2021/01/31 06:49:04;;;;;;;12.43;5.57;;;;;;;-9.80;97.91;100039.56;4997177;28;20225;-67
2021/01/31 06:51:40;;;;;;;13.40;6.97;;;;;;;-9.70;97.79;100040.28;5013741;28;20226;-67
2021/01/31 06:54:33;;;;;;;13.47;6.83;;;;;;;-9.92;95.29;100040.88;5031912;28;20185;-68
2021/01/31 06:57:26;;;;;;;12.37;5.93;;;;;;;-10.37;95.45;100038.72;5030916;28;20233;-67
2021/01/31 07:00:02;;;;;;;11.73;5.67;;;;;;;-10.64;96.36;100037.09;5019764;28;20214;-68
2021/01/31 07:02:33;;;;;;;13.33;6.47;;;;;;;-10.74;97.80;100039.97;4993431;28;20227;-67
2021/01/31 07:05:26;;;;;;;13.47;6.33;;;;;;;-10.75;99.29;100039.13;5001303;28;20190;-67
2021/01/31 07:08:20;;;;;;;11.73;6.13;;;;;;;-10.54;99.66;100029.13;5029043;28;20350;-68
2021/01/31 07:10:51;;;;;;;13.90;6.60;;;;;;;-10.60;99.59;100027.94;5029163;28;20273;-67
2021/01/31 07:13:57;;;;;;;12.70;6.33;;;;;;;-10.67;99.96;100032.16;5029979;28;20188;-67
2021/01/31 07:16:30;;;;;;;13.03;6.10;;;;;;;-10.59;99.81;100034.00;5012352;28;20226;-67
2021/01/31 07:19:14;;;;;;;14.83;6.63;;;;;;;-10.60;99.18;100029.75;5013580;28;20252;-67
2021/01/31 07:21:45;;;;;;;12.23;5.67;;;;;;;-10.30;99.00;100029.25;5002286;28;20227;-67
2021/01/31 07:24:16;;;;;;;12.90;6.23;;;;;;;-10.41;97.39;100032.94;5010902;28;20182;-67
2021/01/31 07:26:53;;;;;;;16.17;6.37;;;;;;;-10.60;96.66;100042.84;5026624;28;20234;-67
2021/01/31 07:29:31;;;;;;;13.87;6.20;;;;;;;-10.73;98.32;100042.44;4984422;28;20191;-67
2021/01/31 07:31:57;;;;;;;14.20;6.17;;;;;;;-10.47;99.17;100043.25;4985304;28;20229;-67
2021/01/31 07:34:36;;;;;;;15.20;6.40;;;;;;;-10.29;97.88;100031.72;4980084;28;20187;-68
2021/01/31 07:37:13;;;;;;;13.23;6.20;;;;;;;-10.34;97.39;100041.03;4996019;28;20275;-68
2021/01/31 07:40:07;;;;;;;14.10;6.13;;;;;;;-10.35;97.27;100037.56;4996450;28;20216;-68
2021/01/31 07:42:35;;;;;;;15.80;6.73;;;;;;;-10.30;97.62;100044.97;5018441;28;20237;-68
2021/01/31 07:45:15;;;;;;;15.57;7.60;;;;;;;-10.22;98.14;100044.06;5015494;28;20637;-68
2021/01/31 07:47:40;;;;;;;17.87;7.53;;;;;;;-10.12;99.30;100042.13;5001448;28;20603;-67
2021/01/31 07:50:08;;;;;;;15.27;7.40;;;;;;;-9.73;100.00;100048.44;5015111;28;20212;-68
2021/01/31 07:52:55;;;;;;;20.13;7.80;;;;;;;-9.97;98.09;100043.16;5032564;28;20174;-68
2021/01/31 07:55:28;;;;;;;15.03;7.17;;;;;;;-9.89;98.39;100040.50;5015529;28;20179;-67
2021/01/31 07:58:08;;;;;;;16.00;7.27;;;;;;;-9.63;97.49;100046.50;5016088;28;20192;-68
2021/01/31 08:00:41;;;;;;;14.50;6.73;;;;;;;-9.35;96.46;100049.50;5016519;28;20235;-68
2021/01/31 08:03:35;;;;;;;12.97;6.13;;;;;;;-9.33;94.70;100055.44;5000235;28;20180;-68
2021/01/31 08:06:28;;;;;;;14.27;6.50;;;;;;;-9.54;92.87;100042.91;5030984;28;20745;-67
2021/01/31 08:08:54;;;;;;;15.07;6.73;;;;;;;-9.62;94.19;100041.09;5015488;28;20203;-67
2021/01/31 08:11:19;;;;;;;12.67;6.77;;;;;;;-9.57;95.17;100035.38;5031397;28;20259;-68
2021/01/31 08:13:47;;;;;;;14.00;6.80;;;;;;;-9.61;95.84;100044.53;5033200;28;20194;-67
2021/01/31 08:16:38;;;;;;;16.93;6.43;;;;;;;-9.58;96.94;100038.97;5011562;28;20321;-67
2021/01/31 08:19:10;;;;;;;13.60;6.33;;;;;;;-9.06;97.22;100047.25;5031774;28;20196;-67
2021/01/31 08:21:59;;;;;;;12.67;5.97;;;;;;;-8.75;95.92;100044.59;5015581;28;20262;-67
2021/01/31 08:25:02;;;;;;;13.27;5.80;;;;;;;-8.53;95.57;100046.53;4999568;28;20189;-68
2021/01/31 08:27:37;;;;;;;12.67;7.07;;;;;;;-8.59;95.78;100043.75;5019527;28;20209;-68
2021/01/31 08:30:31;;;;;;;14.00;6.57;;;;;;;-8.38;95.20;100036.16;5011206;28;20208;-69
2021/01/31 08:33:03;;;;;;;13.33;7.83;;;;;;;-8.31;94.92;100038.75;5031825;28;20183;-68
2021/01/31 08:35:41;;;;;;;13.17;7.60;;;;;;;-8.26;94.47;100033.81;5032276;28;20725;-69
2021/01/31 08:38:24;;;;;;;14.20;7.77;;;;;;;-8.06;95.34;100031.56;5015152;28;20192;-68
2021/01/31 08:41:02;;;;;;;13.47;6.73;;;;;;;-8.07;96.58;100022.03;5031850;28;20232;-68
2021/01/31 08:43:37;;;;;;;13.77;6.73;;;;;;;-8.02;96.71;100031.88;5012180;28;20272;-68
2021/01/31 08:46:26;;;;;;;13.80;6.53;;;;;;;-7.96;95.89;100036.47;5028852;28;20273;-68
2021/01/31 08:48:57;;;;;;;12.60;6.37;;;;;;;-7.72;95.25;100027.63;5017418;28;20271;-68
2021/01/31 08:51:24;;;;;;;13.60;7.40;;;;;;;-7.51;95.37;100026.00;5014193;28;20221;-69
2021/01/31 08:54:15;;;;;;;13.93;7.27;;;;;;;-7.38;94.81;100026.25;5031314;28;20184;-68
2021/01/31 08:56:50;;;;;;;12.10;6.70;;;;;;;-7.40;95.63;100030.88;5030727;28;20235;-69
2021/01/31 08:59:23;;;;;;;13.67;7.50;;;;;;;-7.27;96.58;100025.84;4999364;28;20195;-69
2021/01/31 09:02:17;;;;;;;14.43;7.10;;;;;;;-7.09;97.72;100022.75;5030310;28;20235;-68
2021/01/31 09:04:50;;;;;;;11.23;7.33;;;;;;;-6.73;97.94;100014.03;5029226;28;20290;-69
2021/01/31 09:07:21;;;;;;;13.27;7.70;;;;;;;-6.70;98.17;100012.84;4997814;28;20243;-69
2021/01/31 09:09:57;;;;;;;14.07;8.00;;;;;;;-6.45;99.12;100013.25;4998414;28;20196;-69
2021/01/31 09:12:24;;;;;;;12.40;7.67;;;;;;;-6.10;99.25;100015.16;5011631;28;20220;-68
2021/01/31 09:14:50;;;;;;;16.00;8.10;;;;;;;-5.90;98.96;100021.53;5009626;28;20181;-68
2021/01/31 09:17:24;;;;;;;13.27;7.73;;;;;;;-5.77;98.20;100019.88;4994186;28;20307;-68
2021/01/31 09:19:50;;;;;;;14.57;8.37;;;;;;;-6.23;97.17;100022.91;5010665;28;20564;-70
2021/01/31 09:22:20;;;;;;;14.77;8.43;;;;;;;-6.02;98.50;100023.00;4989313;28;20227;-69
2021/01/31 09:24:50;;;;;;;14.40;9.53;;;;;;;-5.80;99.06;100019.44;4990817;28;20239;-68
2021/01/31 09:27:24;;;;;;;19.53;11.83;;;;;;;-5.61;98.88;100020.44;5002687;28;20213;-69
2021/01/31 09:29:58;;;;;;;16.03;11.17;;;;;;;-5.45;97.89;100022.06;4979205;28;20180;-68
2021/01/31 09:32:26;;;;;;;20.90;13.93;;;;;;;-5.15;97.90;100027.06;4994749;28;20601;-68
2021/01/31 09:34:52;;;;;;;17.57;11.47;;;;;;;-5.02;97.18;100021.91;4978287;28;20648;-69
2021/01/31 09:37:30;;;;;;;16.47;9.50;;;;;;;-4.90;98.24;100022.00;5011976;28;20217;-69
2021/01/31 09:40:00;;;;;;;15.27;9.80;;;;;;;-4.96;98.39;100019.31;5014197;28;20224;-69
2021/01/31 09:42:33;;;;;;;19.10;12.23;;;;;;;-4.94;99.23;100026.06;4997585;28;20231;-69
2021/01/31 09:45:06;;;;;;;16.23;10.00;;;;;;;-4.97;100.00;100018.47;5003095;28;20192;-68
2021/01/31 09:47:31;;;;;;;19.20;10.43;;;;;;;-4.52;100.00;100010.94;4978239;28;20224;-68
2021/01/31 09:49:58;;;;;;;17.53;11.20;;;;;;;-4.26;100.00;100012.97;5011140;28;20173;-68
2021/01/31 09:52:25;;;;;;;17.97;10.77;;;;;;;-4.22;99.56;100014.19;4975036;28;20719;-68
2021/01/31 09:54:51;;;;;;;15.90;10.40;;;;;;;-3.97;99.67;100021.50;4991623;28;20216;-68
2021/01/31 09:57:27;;;;;;;18.37;11.83;;;;;;;-4.11;100.00;100012.63;5009902;28;20797;-68
2021/01/31 10:00:08;;;;;;;21.13;11.47;;;;;;;-3.61;100.00;100018.38;4979776;28;20212;-68
2021/01/31 10:02:38;;;;;;;18.57;12.13;;;;;;;-3.21;100.00;100014.84;4995544;28;20220;-69
2021/01/31 10:05:09;;;;;;;22.87;13.87;;;;;;;-2.93;100.00;100003.88;5011532;28;20283;-69
2021/01/31 10:07:36;;;;;;;21.30;13.87;;;;;;;-2.59;100.00;100001.84;4995373;28;20247;-68
2021/01/31 10:10:23;;;;;;;10.90;8.30;;;;;;;-2.51;100.00;100004.31;4978275;28;20185;-70
2021/01/31 10:12:49;;;;;;;13.77;8.97;;;;;;;-2.16;100.00;100003.00;5011233;28;20184;-68
2021/01/31 10:15:39;;;;;;;11.53;8.07;;;;;;;-1.95;100.00;100016.06;5008899;28;20243;-68
2021/01/31 10:18:12;;;;;;;12.03;8.30;;;;;;;-1.95;100.00;100000.13;5011012;28;20179;-69
2021/01/31 10:20:39;;;;;;;12.13;8.53;;;;;;;-1.86;100.00;100005.81;4993219;28;20719;-68
2021/01/31 10:23:07;;;;;;;15.03;10.00;;;;;;;-1.79;100.00;100006.63;4988622;28;20193;-68
2021/01/31 10:25:37;;;;;;;18.83;12.40;;;;;;;-1.74;100.00;99998.81;5027380;28;20235;-69
2021/01/31 10:28:04;;;;;;;25.57;16.90;;;;;;;-1.58;100.00;100002.84;5014249;28;20257;-68
2021/01/31 10:30:35;;;;;;;11.63;8.57;;;;;;;-1.27;100.00;100006.38;4996995;28;20246;-69
2021/01/31 10:33:01;;;;;;;11.77;7.63;;;;;;;-1.38;100.00;99999.06;5029603;28;20191;-68
2021/01/31 10:35:31;;;;;;;10.80;7.53;;;;;;;-1.53;100.00;100009.16;5009799;28;20215;-68
2021/01/31 10:38:27;;;;;;;10.50;7.43;;;;;;;-1.52;100.00;100003.66;5031356;28;20183;-68
2021/01/31 10:40:55;;;;;;;10.43;7.63;;;;;;;-1.18;100.00;100005.13;5006288;28;20234;-68
2021/01/31 10:43:24;;;;;;;10.93;7.20;;;;;;;-0.90;100.00;100009.03;4996795;28;20185;-68
2021/01/31 10:45:50;;;;;;;10.93;8.00;;;;;;;-0.86;100.00;99992.41;4995909;28;20275;-69
2021/01/31 10:48:16;;;;;;;10.57;8.03;;;;;;;-0.87;100.00;100000.63;5032223;28;20187;-69
2021/01/31 10:50:42;;;;;;;11.73;8.73;;;;;;;-0.72;100.00;99996.59;5029382;28;20296;-69
2021/01/31 10:53:10;;;;;;;11.77;8.50;;;;;;;-0.65;100.00;99992.03;5030651;28;20176;-68
2021/01/31 10:55:38;;;;;;;12.40;8.60;;;;;;;-0.58;100.00;99982.94;4997224;28;20220;-68
2021/01/31 10:58:04;;;;;;;15.33;8.63;;;;;;;-0.48;100.00;99977.13;5013651;28;20191;-69
2021/01/31 11:00:32;;;;;;;13.93;8.90;;;;;;;-0.42;100.00;99970.91;5020021;28;20230;-69
2021/01/31 11:02:58;;;;;;;14.33;9.43;;;;;;;-0.29;100.00;99977.78;5032051;28;20188;-69
2021/01/31 11:05:23;;;;;;;13.20;9.33;;;;;;;-0.05;100.00;99971.56;5008075;28;20282;-70
2021/01/31 11:07:49;;;;;;;14.30;9.80;;;;;;;0.09;100.00;99970.38;5015390;28;20192;-69
2021/01/31 11:10:18;;;;;;;13.27;8.77;;;;;;;0.14;100.00;99962.53;5012988;28;20618;-69
2021/01/31 11:12:44;;;;;;;16.50;11.00;;;;;;;0.08;98.26;99966.09;5022428;28;20430;-69
2021/01/31 11:15:12;;;;;;;12.57;10.18;;;;;;;0.22;97.98;99964.88;5034791;28;20489;-71
2021/01/31 11:17:38;;;;;;;10.83;8.47;;;;;;;0.31;97.55;99959.03;5032946;28;20181;-69
2021/01/31 11:20:05;;;;;;;12.43;8.73;;;;;;;0.48;96.85;99958.19;5031039;28;20234;-70
2021/01/31 11:22:31;;;;;;;11.17;8.13;;;;;;;0.76;95.21;99948.56;5037074;28;20176;-68
2021/01/31 11:24:56;;;;;;;11.17;8.77;;;;;;;0.57;94.63;99948.84;5009706;28;20212;-68
2021/01/31 11:27:22;;;;;;;11.07;8.60;;;;;;;0.61;95.04;99950.03;5012050;28;20236;-67
2021/01/31 11:29:48;;;;;;;12.00;8.93;;;;;;;0.67;94.49;99946.44;5014645;28;20188;-69
2021/01/31 11:32:17;;;;;;;10.57;8.37;;;;;;;0.82;94.80;99947.66;5013370;28;20266;-68
2021/01/31 11:34:44;;;;;;;13.35;9.90;;;;;;;1.05;93.77;99936.22;5025820;28;20417;-68
2021/01/31 11:37:10;;;;;;;11.60;8.63;;;;;;;1.10;93.01;99941.69;5006207;28;20260;-68
2021/01/31 11:39:35;;;;;;;11.33;8.43;;;;;;;1.00;92.58;99946.78;5021277;28;20187;-68